Time;durP1;ratioP1;P1;durP2;ratioP2;P2;SDS_P1;SDS_P2;PMS_P1;PMS_P2;Temp;Humidity;BMP_temperature;BMP_pressure;BME280_temperature;BME280_humidity;BME280_pressure;Samples;Min_cycle;Max_cycle;Signal;HPM_P1;HPM_P2
2022/06/18 00:00:50;;;;;;;3.25;2.95;;;24.20;97.10;;;;;;5063432;28;20028;-70
2022/06/18 00:03:17;;;;;;;3.38;2.10;;;24.20;96.90;;;;;;5050419;28;20064;-70
2022/06/18 00:05:45;;;;;;;2.83;2.47;;;24.10;97.10;;;;;;5057151;28;20097;-71
2022/06/18 00:08:15;;;;;;;25.33;3.65;;;24.10;96.60;;;;;;5057236;28;20488;-70
2022/06/18 00:10:41;;;;;;;2.63;2.40;;;24.10;97.20;;;;;;5052573;28;20021;-70
2022/06/18 00:15:58;;;;;;;3.42;2.50;;;24.10;96.40;;;;;;5065324;28;20103;-70
2022/06/18 00:18:24;;;;;;;3.08;2.78;;;24.10;96.60;;;;;;5054329;28;20029;-70
2022/06/18 00:20:50;;;;;;;5.05;2.30;;;24.10;96.70;;;;;;5062575;28;20019;-70
2022/06/18 00:23:16;;;;;;;5.75;2.75;;;24.10;97.00;;;;;;5053914;28;20032;-71
2022/06/18 00:25:46;;;;;;;4.35;2.88;;;24.10;96.70;;;;;;5053746;28;20020;-70
2022/06/18 00:28:21;;;;;;;4.40;2.58;;;24.10;96.60;;;;;;5050404;28;20516;-70
2022/06/18 00:30:48;;;;;;;6.63;2.50;;;24.10;96.20;;;;;;5052719;28;20092;-70
2022/06/18 00:33:14;;;;;;;4.13;2.60;;;24.10;96.90;;;;;;5056613;28;20445;-70
2022/06/18 00:35:41;;;;;;;4.35;2.40;;;24.10;96.70;;;;;;5053602;28;20024;-71
2022/06/18 00:38:11;;;;;;;4.68;2.85;;;24.00;96.50;;;;;;5057939;28;20124;-71
2022/06/18 00:40:41;;;;;;;2.88;2.67;;;24.10;96.50;;;;;;5046391;28;20384;-70
2022/06/18 00:43:29;;;;;;;2.70;2.50;;;24.00;97.20;;;;;;5058291;28;20028;-70
2022/06/18 00:46:11;;;;;;;4.95;2.72;;;24.00;96.60;;;;;;5052473;28;20488;-70
2022/06/18 00:49:09;;;;;;;3.15;2.85;;;24.00;97.00;;;;;;5055741;28;20024;-70
2022/06/18 00:51:40;;;;;;;4.45;2.83;;;24.10;97.10;;;;;;5051901;28;20756;-69
2022/06/18 00:54:31;;;;;;;5.10;3.15;;;24.00;96.70;;;;;;5055096;28;20055;-71
2022/06/18 00:57:12;;;;;;;4.70;2.65;;;24.00;96.70;;;;;;5061658;28;20582;-70
2022/06/18 01:00:06;;;;;;;4.90;2.70;;;24.00;96.70;;;;;;5058160;28;20095;-70
2022/06/18 01:02:39;;;;;;;3.28;2.75;;;24.00;97.10;;;;;;5052944;28;20029;-70
2022/06/18 01:05:36;;;;;;;5.13;2.70;;;24.10;96.60;;;;;;5054250;28;20044;-71
2022/06/18 01:08:17;;;;;;;7.63;3.33;;;24.00;96.70;;;;;;5061902;28;20060;-70
2022/06/18 01:10:49;;;;;;;4.03;3.00;;;24.00;97.40;;;;;;5050732;28;20066;-70
2022/06/18 01:13:18;;;;;;;4.73;3.07;;;24.00;97.20;;;;;;5052144;28;20089;-71
2022/06/18 01:15:45;;;;;;;3.35;3.05;;;24.00;96.70;;;;;;5051947;28;20025;-70
2022/06/18 01:18:12;;;;;;;3.15;2.85;;;23.90;96.80;;;;;;5053624;28;20127;-69
2022/06/18 01:20:53;;;;;;;2.60;2.40;;;23.90;96.90;;;;;;5048141;28;20477;-70
2022/06/18 01:23:31;;;;;;;6.07;3.15;;;23.90;96.90;;;;;;5051754;28;20033;-70
2022/06/18 01:25:56;;;;;;;7.07;2.80;;;23.90;97.00;;;;;;5050257;28;20068;-70
2022/06/18 01:28:22;;;;;;;3.47;3.20;;;23.90;96.80;;;;;;5048551;28;20524;-70
2022/06/18 01:30:48;;;;;;;4.93;3.33;;;23.90;96.70;;;;;;5053560;28;20497;-70
2022/06/18 01:33:14;;;;;;;4.40;3.30;;;23.90;96.70;;;;;;5047978;28;20109;-70
2022/06/18 01:35:46;;;;;;;5.68;3.70;;;23.90;97.00;;;;;;5050589;28;20025;-70
2022/06/18 01:38:13;;;;;;;3.13;2.80;;;23.90;97.30;;;;;;5048796;28;20359;-70
2022/06/18 01:43:58;;;;;;;3.85;2.80;;;23.80;96.80;;;;;;5046755;28;20063;-70
2022/06/18 01:46:26;;;;;;;5.43;3.22;;;23.80;97.10;;;;;;5052105;28;20108;-70
2022/06/18 01:48:54;;;;;;;4.15;2.67;;;23.80;97.20;;;;;;5049168;28;20070;-70
2022/06/18 01:51:24;;;;;;;4.30;3.28;;;23.80;97.20;;;;;;5046470;28;20083;-70
2022/06/18 01:53:56;;;;;;;4.47;3.08;;;23.80;97.10;;;;;;5047393;28;20025;-71
2022/06/18 01:56:34;;;;;;;3.85;3.30;;;23.80;97.50;;;;;;5049551;28;20036;-70
2022/06/18 01:59:08;;;;;;;6.22;3.72;;;23.80;97.60;;;;;;5046689;28;20123;-70
2022/06/18 02:01:38;;;;;;;5.28;3.08;;;23.80;96.90;;;;;;5050817;28;20010;-70
2022/06/18 02:04:04;;;;;;;4.63;3.13;;;23.70;97.00;;;;;;5055220;28;20110;-70
2022/06/18 02:06:32;;;;;;;3.88;2.92;;;23.70;97.40;;;;;;5048251;28;20037;-70
2022/06/18 02:09:00;;;;;;;5.38;3.15;;;23.70;97.10;;;;;;5047952;28;20112;-70
2022/06/18 02:11:26;;;;;;;4.88;3.10;;;23.70;97.40;;;;;;5045851;28;20025;-70
2022/06/18 02:14:05;;;;;;;6.25;3.63;;;23.70;97.90;;;;;;5050010;28;20024;-70
2022/06/18 02:16:39;;;;;;;9.27;3.63;;;23.60;97.10;;;;;;5048024;28;20024;-70
2022/06/18 02:19:06;;;;;;;9.52;3.83;;;23.60;97.50;;;;;;5048693;28;20029;-70
2022/06/18 02:21:42;;;;;;;5.10;3.33;;;23.60;97.60;;;;;;5052481;28;20060;-70
2022/06/18 02:24:08;;;;;;;6.55;3.38;;;23.60;97.30;;;;;;5049561;28;20421;-70
2022/06/18 02:26:36;;;;;;;3.83;3.10;;;23.60;97.50;;;;;;5050224;28;20473;-70
2022/06/18 02:29:04;;;;;;;3.65;3.10;;;23.60;97.40;;;;;;5047124;28;20021;-70
2022/06/18 02:31:34;;;;;;;5.68;3.80;;;23.60;97.30;;;;;;5052119;28;20051;-70
2022/06/18 02:34:10;;;;;;;3.75;3.40;;;23.60;98.20;;;;;;5051315;28;20163;-70
2022/06/18 02:36:38;;;;;;;5.15;3.47;;;23.60;98.20;;;;;;5049291;28;20025;-70
2022/06/18 02:39:07;;;;;;;5.60;3.63;;;23.50;97.30;;;;;;5051612;28;20025;-71
2022/06/18 02:41:33;;;;;;;6.47;3.85;;;23.40;97.40;;;;;;5044808;28;20034;-70
2022/06/18 02:43:59;;;;;;;5.95;3.60;;;23.40;98.10;;;;;;5053655;28;20037;-70
2022/06/18 02:46:25;;;;;;;8.25;4.35;;;23.40;99.10;;;;;;5056856;28;20096;-71
2022/06/18 02:48:51;;;;;;;4.97;3.58;;;23.30;99.90;;;;;;5047913;28;20160;-70
2022/06/18 02:51:17;;;;;;;6.13;3.83;;;23.20;99.90;;;;;;5058931;28;20036;-70
2022/06/18 02:53:43;;;;;;;3.58;3.28;;;23.30;99.60;;;;;;5052082;28;20025;-70
2022/06/18 02:56:13;;;;;;;5.65;3.33;;;23.30;98.80;;;;;;5051434;28;20025;-70
2022/06/18 02:58:42;;;;;;;3.80;3.40;;;23.30;98.50;;;;;;5053139;28;20477;-70
2022/06/18 03:01:19;;;;;;;4.78;4.03;;;23.20;98.40;;;;;;5051449;28;20026;-70
2022/06/18 03:03:47;;;;;;;3.97;3.58;;;23.20;98.30;;;;;;5056629;28;20016;-70
2022/06/18 03:06:13;;;;;;;4.70;4.30;;;23.20;98.30;;;;;;5050748;28;20106;-70
2022/06/18 03:08:39;;;;;;;5.22;3.40;;;23.10;98.50;;;;;;5061147;28;20025;-70
2022/06/18 03:13:50;;;;;;;6.20;3.95;;;23.00;99.00;;;;;;5059294;28;20516;-70
2022/06/18 03:16:18;;;;;;;3.58;3.38;;;23.00;99.90;;;;;;5055763;28;20033;-70
2022/06/18 03:18:45;;;;;;;4.80;4.40;;;23.00;99.90;;;;;;5053682;28;20033;-70
2022/06/18 03:21:50;;;;;;;4.13;3.70;;;23.10;99.90;;;;;;5053894;28;20025;-70
2022/06/18 03:24:16;;;;;;;5.57;3.80;;;23.00;98.90;;;;;;5056792;28;20480;-70
2022/06/18 03:26:42;;;;;;;4.18;3.72;;;23.00;99.10;;;;;;5061708;28;20469;-70
2022/06/18 03:29:08;;;;;;;5.78;4.78;;;22.90;98.90;;;;;;5053236;28;20021;-70
2022/06/18 03:31:35;;;;;;;6.70;4.80;;;22.90;99.10;;;;;;5053816;28;20013;-71
2022/06/18 03:34:01;;;;;;;4.35;3.92;;;22.80;99.50;;;;;;5063141;28;20493;-70
2022/06/18 03:36:28;;;;;;;4.68;3.92;;;22.80;99.60;;;;;;5055713;28;20056;-70
2022/06/18 03:38:54;;;;;;;4.95;4.45;;;22.80;99.30;;;;;;5058480;28;20028;-70
2022/06/18 03:41:21;;;;;;;5.45;4.63;;;22.70;99.50;;;;;;5050694;28;20040;-70
2022/06/18 03:43:47;;;;;;;5.38;4.50;;;22.70;99.30;;;;;;5053773;28;20032;-70
2022/06/18 03:46:15;;;;;;;7.88;3.85;;;22.70;99.20;;;;;;5062590;28;20029;-70
2022/06/18 03:48:57;;;;;;;5.22;4.35;;;22.70;99.30;;;;;;5055293;28;20083;-70
2022/06/18 03:51:24;;;;;;;5.25;4.57;;;22.70;99.20;;;;;;5063176;28;20017;-70
2022/06/18 03:53:50;;;;;;;7.32;4.20;;;22.70;99.90;;;;;;5055062;28;20108;-70
2022/06/18 03:56:20;;;;;;;7.00;4.50;;;22.70;99.20;;;;;;5052904;28;20025;-70
2022/06/18 03:58:48;;;;;;;5.00;3.97;;;22.70;99.40;;;;;;5053105;28;20473;-70
2022/06/18 04:01:17;;;;;;;5.20;4.70;;;22.70;99.40;;;;;;5059477;28;20052;-70
2022/06/18 04:03:43;;;;;;;6.35;4.63;;;22.70;99.70;;;;;;5048929;28;20389;-70
2022/06/18 04:06:10;;;;;;;4.28;3.90;;;22.70;99.90;;;;;;5060679;28;20017;-70
2022/06/18 04:08:35;;;;;;;6.57;4.22;;;22.70;99.80;;;;;;5052794;28;20070;-71
2022/06/18 04:11:01;;;;;;;5.90;4.50;;;22.70;99.30;;;;;;5055799;28;20025;-70
2022/06/18 04:13:29;;;;;;;4.72;4.30;;;22.70;99.40;;;;;;5055608;28;20032;-70
2022/06/18 04:15:56;;;;;;;8.35;4.80;;;22.70;99.40;;;;;;5057591;28;20037;-70
2022/06/18 04:18:21;;;;;;;4.65;4.25;;;22.60;99.60;;;;;;5054059;28;20038;-70
2022/06/18 04:20:48;;;;;;;7.07;4.20;;;22.60;99.90;;;;;;5053241;28;20039;-70
2022/06/18 04:23:15;;;;;;;4.53;4.20;;;22.60;99.80;;;;;;5055270;28;20021;-70
2022/06/18 04:25:42;;;;;;;6.10;4.10;;;22.60;99.70;;;;;;5053684;28;20017;-70
2022/06/18 04:28:13;;;;;;;5.15;4.43;;;22.60;99.90;;;;;;5057148;28;20032;-70
2022/06/18 04:30:39;;;;;;;4.65;3.88;;;22.70;99.80;;;;;;5054556;28;20066;-71
2022/06/18 04:33:05;;;;;;;8.93;4.53;;;22.70;99.90;;;;;;5059412;28;20040;-70
2022/06/18 04:35:31;;;;;;;5.82;4.25;;;22.70;99.90;;;;;;5051173;28;20605;-70
2022/06/18 04:37:56;;;;;;;4.82;4.43;;;22.80;99.90;;;;;;5059412;28;20095;-70
2022/06/18 04:40:31;;;;;;;7.85;4.30;;;22.70;99.90;;;;;;5051795;28;20493;-70
2022/06/18 04:43:07;;;;;;;4.43;3.78;;;22.80;99.90;;;;;;5058920;28;20036;-71
2022/06/18 04:45:34;;;;;;;4.55;3.75;;;22.80;99.90;;;;;;5049689;28;20032;-70
2022/06/18 04:48:00;;;;;;;6.90;4.45;;;22.80;99.90;;;;;;5058609;28;20028;-70
2022/06/18 04:50:30;;;;;;;8.60;4.60;;;22.80;99.90;;;;;;5048220;28;20104;-70
2022/06/18 04:52:56;;;;;;;5.75;4.82;;;22.90;99.90;;;;;;5060573;28;20024;-70
2022/06/18 04:55:22;;;;;;;5.13;4.65;;;23.00;99.90;;;;;;5047796;28;20030;-70
2022/06/18 04:57:48;;;;;;;6.25;4.45;;;22.90;99.90;;;;;;5061108;28;20040;-70
2022/06/18 05:00:15;;;;;;;4.80;4.40;;;22.90;99.90;;;;;;5048656;28;20470;-70
2022/06/18 05:02:40;;;;;;;5.00;4.43;;;22.90;99.90;;;;;;5056208;28;20033;-70
2022/06/18 05:05:12;;;;;;;4.70;3.83;;;23.00;99.90;;;;;;5057631;28;20021;-70
2022/06/18 05:07:37;;;;;;;7.20;4.18;;;23.00;99.90;;;;;;5047242;28;20026;-70
2022/06/18 05:10:03;;;;;;;5.32;4.20;;;23.00;99.90;;;;;;5056651;28;20452;-70
2022/06/18 05:12:29;;;;;;;8.27;4.15;;;23.00;99.90;;;;;;5060627;28;20092;-70
2022/06/18 05:14:55;;;;;;;4.68;4.28;;;23.10;99.90;;;;;;5052030;28;20044;-70
2022/06/18 05:17:24;;;;;;;9.02;4.90;;;23.10;99.90;;;;;;5048170;28;20024;-70
2022/06/18 05:19:50;;;;;;;6.88;4.40;;;23.20;99.90;;;;;;5057615;28;20021;-70
2022/06/18 05:22:16;;;;;;;5.53;5.00;;;23.20;99.90;;;;;;5052341;28;20108;-70
2022/06/18 05:24:41;;;;;;;6.45;4.68;;;23.20;99.90;;;;;;5050115;28;20473;-70
2022/06/18 05:27:17;;;;;;;7.40;4.57;;;23.20;99.90;;;;;;5058358;28;20025;-70
2022/06/18 05:29:43;;;;;;;6.55;4.22;;;23.30;99.90;;;;;;5052499;28;20025;-70
2022/06/18 05:32:09;;;;;;;9.05;5.13;;;23.20;99.90;;;;;;5054371;28;20488;-70
2022/06/18 05:34:34;;;;;;;6.32;4.70;;;23.30;99.90;;;;;;5053614;28;20029;-70
2022/06/18 05:37:00;;;;;;;6.80;4.50;;;23.30;99.90;;;;;;5056787;28;20036;-70
2022/06/18 05:39:26;;;;;;;4.82;4.38;;;23.40;99.90;;;;;;5060094;28;20112;-70
2022/06/18 05:41:51;;;;;;;7.00;5.45;;;23.40;99.90;;;;;;5050069;28;20099;-69
2022/06/18 05:44:17;;;;;;;6.70;4.50;;;23.40;99.90;;;;;;5052635;28;20041;-70
2022/06/18 05:46:42;;;;;;;7.05;4.63;;;23.50;99.90;;;;;;5056499;28;20112;-70
2022/06/18 05:49:09;;;;;;;6.03;4.25;;;23.50;99.90;;;;;;5061421;28;20473;-70
2022/06/18 05:51:35;;;;;;;6.40;5.28;;;23.50;99.90;;;;;;5054878;28;20041;-70
2022/06/18 05:54:00;;;;;;;6.43;4.50;;;23.60;99.90;;;;;;5054046;28;20071;-70
2022/06/18 05:56:26;;;;;;;10.50;4.97;;;23.70;99.90;;;;;;5063022;28;20024;-70
2022/06/18 05:58:51;;;;;;;7.72;4.65;;;23.80;99.90;;;;;;5049741;28;20181;-70
2022/06/18 06:01:17;;;;;;;10.25;5.40;;;23.80;99.90;;;;;;5049602;28;20025;-70
2022/06/18 06:03:43;;;;;;;6.85;4.53;;;23.80;99.90;;;;;;5060744;28;20032;-70
2022/06/18 06:06:09;;;;;;;5.60;5.03;;;23.90;99.90;;;;;;5055011;28;20025;-70
2022/06/18 06:08:35;;;;;;;11.02;5.22;;;23.90;99.90;;;;;;5047928;28;20021;-70
2022/06/18 06:13:45;;;;;;;9.05;5.05;;;24.00;99.90;;;;;;5050323;28;20186;-70
2022/06/18 06:16:11;;;;;;;5.40;4.80;;;24.00;99.90;;;;;;5054853;28;20100;-70
2022/06/18 06:18:37;;;;;;;9.55;5.32;;;24.10;99.90;;;;;;5059079;28;20029;-70
2022/06/18 06:21:02;;;;;;;7.38;5.35;;;24.00;99.90;;;;;;5054572;28;20365;-70
2022/06/18 06:23:29;;;;;;;8.27;4.68;;;24.10;99.90;;;;;;5050794;28;20458;-70
2022/06/18 06:25:56;;;;;;;7.93;4.75;;;24.20;99.90;;;;;;5061683;28;20474;-71
2022/06/18 06:28:25;;;;;;;6.28;5.68;;;24.10;99.90;;;;;;5050937;28;20029;-70
2022/06/18 06:30:52;;;;;;;7.60;5.22;;;24.20;99.90;;;;;;5049706;28;20466;-71
2022/06/18 06:33:18;;;;;;;7.97;5.85;;;24.20;99.90;;;;;;5053527;28;20024;-70
2022/06/18 06:35:44;;;;;;;6.53;5.28;;;24.30;99.90;;;;;;5053266;28;20029;-70
2022/06/18 06:38:11;;;;;;;10.40;6.15;;;24.40;99.90;;;;;;5061392;28;20491;-70
2022/06/18 06:40:37;;;;;;;6.63;4.97;;;24.50;99.90;;;;;;5058819;28;20066;-71
2022/06/18 06:43:04;;;;;;;6.45;4.47;;;24.50;99.90;;;;;;5052654;28;20028;-71
2022/06/18 06:45:32;;;;;;;8.98;5.18;;;24.60;99.90;;;;;;5046200;28;20099;-71
2022/06/18 06:47:58;;;;;;;11.50;5.10;;;24.70;99.90;;;;;;5053402;28;20153;-70
2022/06/18 06:50:25;;;;;;;11.60;5.28;;;24.90;99.90;;;;;;5053574;28;20021;-71
2022/06/18 06:52:52;;;;;;;8.60;6.22;;;25.00;99.90;;;;;;5052244;28;20125;-70
2022/06/18 06:58:16;;;;;;;9.95;5.63;;;25.20;99.90;;;;;;5054686;28;20102;-71
2022/06/18 07:00:45;;;;;;;8.57;6.00;;;25.30;99.90;;;;;;5052244;28;20103;-71
2022/06/18 07:03:17;;;;;;;11.25;5.50;;;25.30;99.90;;;;;;5054459;28;20048;-71
2022/06/18 07:05:44;;;;;;;14.82;4.88;;;25.40;99.90;;;;;;5051741;28;20484;-71
2022/06/18 07:08:11;;;;;;;10.82;5.00;;;25.50;99.90;;;;;;5044181;28;20052;-71
2022/06/18 07:10:37;;;;;;;9.07;4.70;;;25.60;99.90;;;;;;5055076;28;20059;-71
2022/06/18 07:13:04;;;;;;;9.02;4.65;;;25.70;99.90;;;;;;5045944;28;20021;-71
2022/06/18 07:15:30;;;;;;;9.82;5.50;;;25.80;99.90;;;;;;5040545;28;20390;-71
2022/06/18 07:17:57;;;;;;;7.20;5.00;;;25.90;98.80;;;;;;5048424;28;20087;-71
2022/06/18 07:20:23;;;;;;;11.55;5.75;;;26.00;99.80;;;;;;5059216;28;20077;-71
2022/06/18 07:22:48;;;;;;;10.70;5.20;;;26.00;99.90;;;;;;5047657;28;20108;-71
2022/06/18 07:25:15;;;;;;;10.85;4.82;;;26.10;99.90;;;;;;5049561;28;20037;-71
2022/06/18 07:27:42;;;;;;;9.52;5.25;;;26.10;99.20;;;;;;5055441;28;20055;-73
2022/06/18 07:30:09;;;;;;;10.95;5.47;;;26.30;99.30;;;;;;5054041;28;20028;-73
2022/06/18 07:32:45;;;;;;;10.00;5.72;;;26.30;99.50;;;;;;5059929;28;20025;-72
2022/06/18 07:35:29;;;;;;;7.45;5.82;;;26.50;98.90;;;;;;5056377;28;20021;-72
2022/06/18 07:37:57;;;;;;;15.57;6.80;;;26.60;99.40;;;;;;5051098;28;20041;-72
2022/06/18 07:40:23;;;;;;;8.60;5.80;;;26.80;99.60;;;;;;5053377;28;20043;-72
2022/06/18 07:42:52;;;;;;;10.25;5.45;;;26.80;99.10;;;;;;5051049;28;20029;-72
2022/06/18 07:45:21;;;;;;;9.27;6.10;;;26.80;98.50;;;;;;5054713;28;20173;-72
2022/06/18 07:47:48;;;;;;;8.13;4.85;;;27.00;98.20;;;;;;5057745;28;20024;-73
2022/06/18 07:50:17;;;;;;;13.63;6.13;;;27.30;98.80;;;;;;5048332;28;20045;-72
2022/06/18 07:52:44;;;;;;;13.88;5.35;;;27.20;97.50;;;;;;5061517;28;20025;-72
2022/06/18 07:55:17;;;;;;;10.82;6.25;;;27.40;98.90;;;;;;5049367;28;20029;-72
2022/06/18 07:57:43;;;;;;;9.75;5.88;;;27.50;97.60;;;;;;5060398;28;20353;-72
2022/06/18 08:00:12;;;;;;;13.82;6.10;;;27.50;98.90;;;;;;5057147;28;20060;-72
2022/06/18 08:02:39;;;;;;;12.13;5.88;;;27.60;97.50;;;;;;5047997;28;20033;-73
2022/06/18 08:05:07;;;;;;;12.50;6.38;;;27.80;96.70;;;;;;5052811;28;20031;-72
2022/06/18 08:07:33;;;;;;;9.05;6.03;;;27.90;97.50;;;;;;5060618;28;20090;-72
2022/06/18 08:09:58;;;;;;;8.68;5.90;;;27.80;96.50;;;;;;5050864;28;20036;-72
2022/06/18 08:12:24;;;;;;;12.60;6.22;;;27.80;97.90;;;;;;5054276;28;20052;-72
2022/06/18 08:14:50;;;;;;;11.50;5.75;;;27.90;96.50;;;;;;5057081;28;20057;-73
2022/06/18 08:17:15;;;;;;;15.75;5.97;;;28.00;96.60;;;;;;5062330;28;20036;-73
2022/06/18 08:19:41;;;;;;;10.55;6.35;;;28.20;95.30;;;;;;5059712;28;20025;-72
2022/06/18 08:22:06;;;;;;;14.32;6.20;;;28.30;95.20;;;;;;5055834;28;20021;-73
2022/06/18 08:24:32;;;;;;;13.18;5.50;;;28.50;95.60;;;;;;5048871;28;20067;-72
2022/06/18 08:26:59;;;;;;;14.23;5.45;;;28.60;95.30;;;;;;5054816;28;20016;-73
2022/06/18 08:29:25;;;;;;;12.15;5.60;;;28.80;94.80;;;;;;5056711;28;20017;-73
2022/06/18 08:31:51;;;;;;;11.77;5.63;;;28.90;94.90;;;;;;5064683;28;20025;-72
2022/06/18 08:34:17;;;;;;;14.60;5.70;;;29.00;95.40;;;;;;5050912;28;20539;-73
2022/06/18 08:36:43;;;;;;;8.82;5.47;;;29.10;94.80;;;;;;5054248;28;20024;-73
2022/06/18 08:39:09;;;;;;;12.10;5.28;;;29.20;94.70;;;;;;5058929;28;20032;-73
2022/06/18 08:41:37;;;;;;;10.75;5.35;;;29.30;94.20;;;;;;5058246;28;20543;-73
2022/06/18 08:44:16;;;;;;;11.18;6.03;;;29.40;94.30;;;;;;5049217;28;20112;-72
2022/06/18 08:47:08;;;;;;;12.57;6.43;;;29.60;94.10;;;;;;5060060;28;20407;-73
2022/06/18 08:50:08;;;;;;;13.75;5.75;;;29.70;94.60;;;;;;5058192;28;20098;-72
2022/06/18 08:52:37;;;;;;;8.95;5.55;;;29.70;93.90;;;;;;5052605;28;20600;-72
2022/06/18 08:55:28;;;;;;;10.15;5.60;;;29.80;93.80;;;;;;5052003;28;20024;-73
2022/06/18 08:58:02;;;;;;;12.00;5.43;;;29.90;93.30;;;;;;5050585;28;20051;-72
2022/06/18 09:00:44;;;;;;;10.45;5.57;;;30.00;93.80;;;;;;5048110;28;20025;-73
2022/06/18 09:03:27;;;;;;;11.43;5.63;;;30.20;93.50;;;;;;5050625;28;20029;-73
2022/06/18 09:06:31;;;;;;;11.15;4.93;;;30.20;94.10;;;;;;5050740;28;20060;-73
2022/06/18 09:09:25;;;;;;;11.93;5.22;;;30.30;93.50;;;;;;5045346;28;20022;-73
2022/06/18 09:12:06;;;;;;;12.57;5.95;;;30.40;93.60;;;;;;5040127;28;20037;-73
2022/06/18 09:14:44;;;;;;;13.20;4.95;;;30.60;92.90;;;;;;5056293;28;20028;-73
2022/06/18 09:17:34;;;;;;;14.48;5.25;;;30.70;91.60;;;;;;5054945;28;20105;-73
2022/06/18 09:20:08;;;;;;;9.43;4.57;;;30.80;92.60;;;;;;5057022;28;20047;-73
2022/06/18 09:22:37;;;;;;;8.90;5.40;;;31.00;92.00;;;;;;5054491;28;20033;-73
2022/06/18 09:25:13;;;;;;;9.52;5.82;;;30.90;92.40;;;;;;5048789;28;20021;-73
2022/06/18 09:27:45;;;;;;;10.95;6.05;;;30.90;93.30;;;;;;5049274;28;20054;-73
2022/06/18 09:30:19;;;;;;;12.45;4.22;;;31.10;92.70;;;;;;5058538;28;20017;-73
2022/06/18 09:32:52;;;;;;;12.10;5.03;;;31.20;92.80;;;;;;5043141;28;20553;-73
2022/06/18 09:35:21;;;;;;;18.27;9.82;;;31.40;91.50;;;;;;5060422;28;20021;-73
2022/06/18 09:38:05;;;;;;;10.02;4.65;;;31.40;92.40;;;;;;5064442;28;20154;-73
2022/06/18 09:40:36;;;;;;;12.18;4.13;;;31.40;90.80;;;;;;5050518;28;20029;-73
2022/06/18 09:43:20;;;;;;;9.65;4.20;;;31.60;91.40;;;;;;5056445;28;20032;-73
2022/06/18 09:45:49;;;;;;;9.63;4.20;;;31.70;91.00;;;;;;5049574;28;20731;-73
2022/06/18 09:48:15;;;;;;;8.02;4.35;;;31.80;91.50;;;;;;5057571;28;20017;-73
2022/06/18 09:50:48;;;;;;;9.32;4.25;;;31.80;90.70;;;;;;5047254;28;20427;-72
2022/06/18 09:53:22;;;;;;;9.50;4.88;;;31.80;90.70;;;;;;5049553;28;20025;-73
2022/06/18 09:56:03;;;;;;;10.30;4.65;;;31.80;88.00;;;;;;5060668;28;20025;-73
2022/06/18 09:58:41;;;;;;;15.63;5.03;;;32.00;90.20;;;;;;5052901;28;20128;-73
2022/06/18 10:01:08;;;;;;;11.02;4.40;;;32.10;88.90;;;;;;5048290;28;20029;-72
2022/06/18 10:09:10;;;;;;;11.70;4.20;;;32.20;89.00;;;;;;5045817;28;20044;-72
2022/06/18 10:11:38;;;;;;;13.43;4.35;;;32.30;85.40;;;;;;5059464;28;20028;-73
2022/06/18 10:14:16;;;;;;;17.55;4.68;;;32.30;84.60;;;;;;5049710;28;20032;-72
2022/06/18 10:16:47;;;;;;;11.75;4.38;;;32.40;85.10;;;;;;5051118;28;20448;-72
2022/06/18 10:19:28;;;;;;;10.57;4.38;;;32.60;86.50;;;;;;5049025;28;20535;-73
2022/06/18 10:22:22;;;;;;;13.10;4.57;;;32.80;87.60;;;;;;5057658;28;20036;-72
2022/06/18 10:25:14;;;;;;;10.48;4.28;;;32.90;83.40;;;;;;5052746;28;20040;-72
2022/06/18 10:28:13;;;;;;;14.25;4.30;;;33.00;83.60;;;;;;5055731;28;20481;-73
2022/06/18 10:30:54;;;;;;;15.30;4.40;;;33.10;82.90;;;;;;5044777;28;20036;-71
2022/06/18 10:33:47;;;;;;;9.20;4.35;;;33.30;83.10;;;;;;5047350;28;20063;-72
2022/06/18 10:36:35;;;;;;;12.38;4.10;;;33.30;81.90;;;;;;5049597;28;20477;-72
2022/06/18 10:39:13;;;;;;;12.68;3.88;;;33.40;82.80;;;;;;5049959;28;20048;-73
2022/06/18 10:42:11;;;;;;;10.35;4.38;;;33.40;81.30;;;;;;5062343;28;20025;-72
2022/06/18 10:44:46;;;;;;;9.57;4.03;;;33.50;83.50;;;;;;5055094;28;20112;-73
2022/06/18 10:47:16;;;;;;;11.80;4.35;;;33.60;80.80;;;;;;5045178;28;20103;-72
2022/06/18 10:49:42;;;;;;;13.88;4.35;;;33.60;82.60;;;;;;5057216;28;20063;-72
2022/06/18 10:52:20;;;;;;;12.35;4.63;;;33.60;79.70;;;;;;5055345;28;20021;-73
2022/06/18 10:54:46;;;;;;;11.18;4.18;;;33.60;80.10;;;;;;5051371;28;20018;-72
2022/06/18 10:57:22;;;;;;;11.38;5.15;;;33.70;81.10;;;;;;5058132;28;20044;-73
2022/06/18 10:59:48;;;;;;;9.43;3.92;;;33.80;81.30;;;;;;5058429;28;20025;-72
2022/06/18 11:02:25;;;;;;;12.88;4.68;;;33.90;82.40;;;;;;5056675;28;20041;-72
2022/06/18 11:04:58;;;;;;;11.35;4.85;;;34.00;83.20;;;;;;5060378;28;20025;-73
2022/06/18 11:07:26;;;;;;;9.07;4.50;;;34.00;83.50;;;;;;5060810;28;20024;-72
2022/06/18 11:09:58;;;;;;;12.02;4.65;;;34.10;85.00;;;;;;5055641;28;20090;-72
2022/06/18 11:12:31;;;;;;;9.23;3.95;;;34.10;80.70;;;;;;5063456;28;20457;-72
2022/06/18 11:14:58;;;;;;;10.05;4.43;;;34.20;81.90;;;;;;5058915;28;20382;-72
2022/06/18 11:17:28;;;;;;;12.95;4.70;;;34.20;81.90;;;;;;5052407;28;20024;-73
2022/06/18 11:20:05;;;;;;;12.35;4.55;;;34.20;81.90;;;;;;5060832;28;20060;-74
2022/06/18 11:22:30;;;;;;;10.68;4.47;;;34.20;80.50;;;;;;5053746;28;20109;-73
2022/06/18 11:25:02;;;;;;;14.65;4.72;;;34.40;80.30;;;;;;5062294;28;20103;-73
2022/06/18 11:27:34;;;;;;;14.07;4.85;;;34.30;80.70;;;;;;5058152;28;20075;-73
2022/06/18 11:30:17;;;;;;;12.90;4.50;;;34.60;84.10;;;;;;5051540;28;20033;-72
2022/06/18 11:32:47;;;;;;;11.40;5.28;;;34.10;80.80;;;;;;5061131;28;20021;-73
2022/06/18 11:35:26;;;;;;;13.38;4.90;;;34.20;81.20;;;;;;5060247;28;20017;-73
2022/06/18 11:37:56;;;;;;;10.98;4.47;;;34.40;80.80;;;;;;5062131;28;20028;-73
2022/06/18 11:40:23;;;;;;;14.48;4.68;;;34.60;80.30;;;;;;5051923;28;20020;-73
2022/06/18 11:42:57;;;;;;;13.98;5.28;;;34.60;83.50;;;;;;5059337;28;20032;-73
2022/06/18 11:45:28;;;;;;;13.40;4.75;;;34.90;80.40;;;;;;5053012;28;20378;-73
2022/06/18 11:48:25;;;;;;;16.50;4.78;;;34.80;76.80;;;;;;5055571;28;20336;-73
2022/06/18 11:50:59;;;;;;;14.50;4.85;;;34.90;79.80;;;;;;5060072;28;20024;-73
2022/06/18 11:53:34;;;;;;;11.73;5.10;;;35.00;78.00;;;;;;5058326;28;20017;-73
2022/06/18 11:56:02;;;;;;;10.10;5.05;;;34.90;77.00;;;;;;5073456;28;20481;-73
2022/06/18 11:58:44;;;;;;;15.65;5.43;;;35.00;80.30;;;;;;5051683;28;20094;-73
2022/06/18 12:01:31;;;;;;;12.35;4.78;;;35.00;80.30;;;;;;5055334;28;20484;-73
2022/06/18 12:04:09;;;;;;;11.98;5.15;;;35.10;80.40;;;;;;5057830;28;20682;-73
2022/06/18 12:06:59;;;;;;;14.25;5.22;;;35.00;77.30;;;;;;5060514;28;20021;-73
2022/06/18 12:09:28;;;;;;;11.02;4.45;;;35.20;78.20;;;;;;5049016;28;20462;-73
2022/06/18 12:12:17;;;;;;;14.38;4.78;;;35.20;77.10;;;;;;5061461;28;20044;-74
2022/06/18 12:14:54;;;;;;;15.48;4.82;;;35.30;79.10;;;;;;5058681;28;20393;-73
2022/06/18 12:17:43;;;;;;;8.43;4.32;;;35.30;76.90;;;;;;5045825;28;20029;-71
2022/06/18 12:20:41;;;;;;;11.90;4.93;;;35.00;78.20;;;;;;5049264;28;20551;-72
2022/06/18 12:23:33;;;;;;;11.75;4.85;;;34.90;77.30;;;;;;5054612;28;20059;-72
2022/06/18 12:26:08;;;;;;;10.65;4.47;;;35.00;80.50;;;;;;5052830;28;20045;-72
2022/06/18 12:28:39;;;;;;;11.40;4.97;;;35.20;80.60;;;;;;5068033;28;20036;-73
2022/06/18 12:31:07;;;;;;;11.45;4.75;;;35.30;82.90;;;;;;5058842;28;20017;-72
2022/06/18 12:34:07;;;;;;;11.55;5.03;;;35.50;81.30;;;;;;5058515;28;20151;-72
2022/06/18 12:36:44;;;;;;;11.52;4.93;;;35.50;79.30;;;;;;5058953;28;20035;-72
2022/06/18 12:39:33;;;;;;;12.25;5.10;;;35.50;78.70;;;;;;5055426;28;20055;-72
2022/06/18 12:42:39;;;;;;;16.35;5.38;;;35.60;77.70;;;;;;5082753;28;20453;-72
2022/06/18 12:45:11;;;;;;;15.65;5.90;;;35.60;77.80;;;;;;5044825;28;20053;-73
2022/06/18 12:48:03;;;;;;;15.82;5.25;;;35.70;78.60;;;;;;5053601;28;20744;-72
2022/06/18 12:50:44;;;;;;;8.80;4.90;;;35.60;79.20;;;;;;5060244;28;20024;-72
2022/06/18 12:53:15;;;;;;;11.87;5.13;;;35.80;78.90;;;;;;5053935;28;20099;-72
2022/06/18 12:55:53;;;;;;;14.55;4.90;;;35.80;77.60;;;;;;5065307;28;20024;-71
2022/06/18 12:58:32;;;;;;;14.18;4.90;;;35.90;76.80;;;;;;5053436;28;20036;-72
2022/06/18 13:01:06;;;;;;;14.40;5.68;;;35.90;77.30;;;;;;5055314;28;20032;-72
2022/06/18 13:03:55;;;;;;;11.60;4.95;;;35.90;77.80;;;;;;5063750;28;20021;-72
2022/06/18 13:06:36;;;;;;;13.07;4.50;;;35.90;80.10;;;;;;5048309;28;20020;-73
2022/06/18 13:09:21;;;;;;;14.75;4.53;;;36.00;80.00;;;;;;5059562;28;20029;-72
2022/06/18 13:11:55;;;;;;;10.52;4.53;;;36.10;77.80;;;;;;5045867;28;20043;-74
2022/06/18 13:14:39;;;;;;;11.77;4.95;;;36.00;75.50;;;;;;5054176;28;20036;-74
2022/06/18 13:17:13;;;;;;;12.90;4.45;;;36.00;77.70;;;;;;5055766;28;20021;-73
2022/06/18 13:19:50;;;;;;;11.50;4.85;;;36.00;80.60;;;;;;5056086;28;20012;-74
2022/06/18 13:22:16;;;;;;;11.10;5.40;;;35.90;77.30;;;;;;5061771;28;20147;-74
2022/06/18 13:30:26;;;;;;;13.95;4.72;;;36.10;77.00;;;;;;5048844;28;20507;-74
2022/06/18 13:33:10;;;;;;;12.82;5.30;;;36.00;76.40;;;;;;5061906;28;20036;-74